Latest Weather Observations for Mortlake

IDV60801

Issued at 9:02 pm EST Friday 3 July 2015 (issued every 30 minutes, with the page automatically refreshed every 10 minutes)

About weather observations | Map of weather stations | Latest weather observations for VIC | Other Formats
Station Details ID: 090176 Name: MORTLAKE RACECOURSE Lat: -38.07 Lon: 142.77 Height: 130.0 m
Data from the previous 72 hours. | See also: Recent months at Mortlake
Date/Time
EST
Temp
°C
App
Temp
°C
Dew
Point
Rel
Hum
%
Delta-T
°C
Wind Press
QNH
hPa
Press
MSL
hPa
Rain
since 9 am
mm
Dir
 
Spd
km/h
Gust
km/h
Spd
kts
Gust
kts
03/09:00pm 7.0 3.8 5.2 88 0.8 NNW 11 15 6 8 1024.6 1024.8 0.0
03/08:30pm 6.2 2.9 4.8 91 0.6 NNW 11 13 6 7 1024.7 1024.9 0.0
03/08:00pm 5.8 2.5 4.6 92 0.5 NNW 11 13 6 7 1024.7 1024.9 0.0
03/07:30pm 6.6 3.3 4.8 88 0.8 NNW 11 13 6 7 1024.7 1024.9 0.0
03/07:00pm 7.2 4.0 5.0 86 1.0 NNW 11 13 6 7 1024.7 1024.9 0.0
03/06:30pm 7.3 4.5 5.3 87 0.9 NNW 9 11 5 6 1025.0 1025.2 0.0
03/06:00pm 7.5 5.1 5.1 85 1.1 NNW 7 9 4 5 1025.1 1025.3 0.0
03/05:30pm 7.7 4.9 5.0 83 1.2 NNW 9 11 5 6 1025.2 1025.5 0.0
03/05:00pm 8.1 5.2 4.7 79 1.5 NW 9 13 5 7 1025.3 1025.6 0.0
03/04:30pm 8.3 5.0 4.7 78 1.6 NNW 11 17 6 9 1025.5 1025.8 0.0
03/04:00pm 8.6 4.9 4.2 74 1.9 NW 13 20 7 11 1025.6 1025.9 0.0
03/03:30pm 8.8 5.4 3.8 71 2.2 WNW 11 15 6 8 1025.7 1026.0 0.0
03/03:00pm 8.4 3.4 3.8 73 2.0 WNW 19 24 10 13 1026.0 1026.3 0.0
03/02:30pm 9.2 4.2 4.4 72 2.1 NW 20 32 11 17 1026.0 1026.3 0.0
03/02:00pm 9.1 3.5 3.5 68 2.4 WNW 22 28 12 15 1026.2 1026.5 0.0
03/01:30pm 9.7 4.6 4.3 69 2.4 NW 20 28 11 15 1026.5 1026.8 0.0
03/01:00pm 9.7 4.8 4.3 69 2.4 NW 19 28 10 15 1027.0 1027.3 0.0
03/12:30pm 9.5 4.6 4.1 69 2.4 NW 19 26 10 14 1027.5 1027.8 0.0
03/12:00pm 9.4 4.0 4.6 72 2.1 WNW 22 30 12 16 1027.8 1028.1 0.0
03/11:30am 9.4 5.5 5.2 75 1.9 NW 15 22 8 12 1028.1 1028.4 0.0
03/11:00am 9.1 4.7 4.9 75 1.9 NW 17 22 9 12 1028.3 1028.6 0.0
03/10:30am 9.1 6.2 6.7 85 1.1 NNW 11 19 6 10 1028.4 1028.7 0.0
03/10:00am 6.9 3.9 6.0 94 0.4 NNW 11 15 6 8 1028.6 1028.9 0.0
03/09:30am 6.1 3.8 5.8 98 0.1 NNW 7 11 4 6 1028.7 1029.0 0.0
03/09:00am 5.3 3.5 5.2 99 0.0 NW 4 7 2 4 1028.8 1029.1 0.0
03/08:30am 4.5 2.5 4.4 99 0.0 WNW 4 6 2 3 1028.9 1029.2 0.0
03/08:00am 4.2 1.6 4.1 99 0.0 NNW 7 9 4 5 1028.7 1029.0 0.0
03/07:30am 4.0 1.3 3.9 99 0.0 NNW 7 7 4 4 1028.5 1028.8 0.0
03/07:00am 3.9 1.2 3.8 99 0.0 NNW 7 9 4 5 1028.3 1028.6 0.0
03/06:30am 3.5 0.4 3.4 99 0.0 NNW 9 11 5 6 1028.1 1028.4 0.0
03/06:00am 3.4 0.2 3.3 99 0.0 NNW 9 11 5 6 1028.1 1028.4 0.0
03/05:30am 2.9 -0.3 2.8 99 0.0 NNW 9 11 5 6 1028.1 1028.4 0.0
03/05:00am 2.5 -0.8 2.4 99 0.0 NNW 9 11 5 6 1028.0 1028.3 0.0
03/04:30am 1.4 -2.1 1.3 99 0.0 NNW 9 11 5 6 1028.3 1028.6 0.0
03/04:00am 0.1 -3.2 0.0 99 0.0 NNW 7 9 4 5 1028.2 1028.5 0.0
03/03:30am 0.3 -3.4 0.2 99 0.0 NNW 9 9 5 5 1028.3 1028.6 0.0
03/03:00am -0.4 -3.8 -0.5 99 0.0 NNW 7 9 4 5 1028.3 1028.6 0.0
03/02:30am 0.2 -3.1 0.1 99 0.0 NNW 7 7 4 4 1028.3 1028.6 0.0
03/02:00am 0.7 -1.2 0.6 99 0.0 CALM 0 2 0 1 1028.3 1028.6 0.0
03/01:30am 3.0 0.3 2.9 99 0.0 SSW 6 9 3 5 1028.6 1028.9 0.0
03/01:00am 2.5 0.5 2.4 99 0.0 NW 2 4 1 2 1028.8 1029.1 0.0
03/12:30am 3.3 1.1 3.2 99 0.0 N 4 4 2 2 1028.9 1029.2 0.0
03/12:00am 4.1 1.6 4.0 99 0.0 N 6 7 3 4 1029.5 1029.8 0.0
 
Date/Time
EST
Temp
°C
App
Temp
°C
Dew
Point
Rel
Hum
%
Delta-T
°C
Wind Press
QNH
hPa
Press
MSL
hPa
Rain
since 9 am
mm
Dir
 
Spd
km/h
Gust
km/h
Spd
kts
Gust
kts
02/11:30pm 2.8 0.5 2.7 99 0.0 WSW 4 6 2 3 1029.7 1030.0 0.0
02/11:00pm 2.5 0.1 2.4 99 0.0 WSW 4 6 2 3 1029.6 1029.9 0.0
02/10:30pm 3.1 0.8 3.0 99 0.0 WSW 4 4 2 2 1029.5 1029.8 0.0
02/10:00pm 2.4 -0.4 2.3 99 0.0 WSW 6 7 3 4 1029.4 1029.7 0.0
02/09:30pm 4.4 2.4 4.3 99 0.0 WSW 4 6 2 3 1029.3 1029.6 0.0
02/09:00pm 5.8 4.1 5.7 99 0.0 WSW 4 9 2 5 1029.2 1029.5 0.0
02/08:30pm 5.1 2.6 5.0 99 0.0 WSW 7 15 4 8 1029.2 1029.5 0.0
02/08:00pm 5.0 2.4 4.4 96 0.3 W 7 9 4 5 1028.9 1029.2 0.0
02/07:30pm 6.5 4.1 5.3 92 0.5 W 7 11 4 6 1028.7 1029.0 0.0
02/07:00pm 7.3 4.7 5.9 91 0.6 SW 9 15 5 8 1028.5 1028.8 0.0
02/06:30pm 7.2 5.1 5.7 90 0.7 W 6 7 3 4 1028.1 1028.4 0.0
02/06:00pm 7.6 5.3 5.7 88 0.9 SSW 7 9 4 5 1027.9 1028.2 0.0
02/05:30pm 7.8 5.2 6.3 90 0.7 SW 9 9 5 5 1027.7 1028.0 0.0
02/05:00pm 8.6 5.7 6.4 86 1.0 SW 11 15 6 8 1027.5 1027.8 0.0
02/04:30pm 8.5 5.1 6.0 84 1.1 SSW 13 19 7 10 1027.1 1027.4 0.0
02/04:00pm 9.5 4.8 6.2 80 1.5 SSW 20 26 11 14 1027.0 1027.3 0.0
02/03:30pm 10.0 5.5 6.2 77 1.8 SW 19 24 10 13 1026.6 1026.9 0.0
02/03:00pm 9.9 4.2 4.7 70 2.3 SSW 24 33 13 18 1026.2 1026.5 0.0
02/02:30pm 9.7 3.2 4.5 70 2.3 SSW 28 39 15 21 1026.0 1026.3 0.0
02/02:00pm 9.7 3.0 5.7 76 1.8 SSW 30 39 16 21 1025.9 1026.2 0.0
02/01:30pm 10.6 4.0 4.1 64 2.9 SSW 28 39 15 21 1025.5 1025.8 0.0
02/01:00pm 10.3 3.2 5.3 71 2.3 SSW 32 43 17 23 1025.3 1025.6 0.0
02/12:30pm 9.8 4.0 6.2 78 1.7 S 26 35 14 19 1025.2 1025.5 0.0
02/12:00pm 10.2 3.6 6.0 75 1.9 SSW 30 43 16 23 1025.2 1025.5 0.0
02/11:30am 10.1 2.5 5.7 74 2.0 SSW 35 46 19 25 1025.0 1025.2 0.0
02/11:00am 10.1 3.3 5.3 72 2.2 SSW 30 41 16 22 1024.9 1025.1 0.0
02/10:30am 9.8 2.4 4.8 71 2.3 SSW 33 44 18 24 1024.6 1024.8 0.0
02/10:00am 8.2 2.4 6.2 87 0.9 SW 26 41 14 22 1024.4 1024.6 0.0
02/09:30am 9.0 3.4 7.0 87 0.9 SW 26 35 14 19 1023.8 1024.0 0.0
02/09:00am 7.8 2.6 7.2 96 0.3 SW 24 35 13 19 1023.4 1023.6 2.6
02/08:32am 7.8 0.9 7.2 96 0.3 SW 33 52 18 28 1023.1 1023.3 2.6
02/08:30am 7.8 0.5 7.4 97 0.2 SW 35 52 19 28 1023.1 1023.3 2.6
02/08:00am 8.2 1.5 7.4 95 0.4 SW 32 50 17 27 1022.6 1022.8 2.2
02/07:58am 8.2 2.3 7.4 95 0.4 WSW 28 50 15 27 1022.6 1022.8 2.0
02/07:57am 8.3 2.8 7.4 94 0.4 WSW 26 39 14 21 1022.5 1022.7 2.0
02/07:30am 7.3 3.7 6.9 97 0.2 WNW 15 20 8 11 1021.5 1021.8 2.0
02/07:00am 6.6 3.3 6.5 99 0.0 WNW 13 19 7 10 1021.1 1021.4 2.0
02/06:30am 7.5 4.0 7.4 99 0.0 W 15 22 8 12 1020.8 1021.1 2.0
02/06:00am 7.9 4.2 7.8 99 0.0 W 17 24 9 13 1020.5 1020.8 2.0
02/05:30am 8.3 3.3 8.2 99 0.0 W 24 41 13 22 1020.3 1020.6 2.0
02/05:00am 8.5 5.0 7.1 91 0.7 W 15 24 8 13 1019.8 1020.1 1.8
02/04:30am 8.7 5.7 7.6 93 0.5 W 13 20 7 11 1020.1 1020.4 1.8
02/04:00am 8.7 6.2 8.4 98 0.1 W 11 15 6 8 1020.2 1020.5 1.8
02/03:30am 9.3 6.2 8.8 97 0.2 WSW 15 20 8 11 1020.3 1020.6 1.8
02/03:00am 10.1 6.5 10.0 99 0.1 W 19 26 10 14 1020.0 1020.3 1.8
02/02:30am 10.6 7.0 10.4 99 0.1 W 20 35 11 19 1019.9 1020.2 1.8
02/02:00am 10.5 6.8 10.3 99 0.1 W 20 35 11 19 1019.6 1019.9 1.8
02/01:30am 10.3 6.2 10.1 99 0.1 WNW 22 32 12 17 1019.6 1019.9 1.8
02/01:00am 10.3 6.8 10.1 99 0.1 W 19 30 10 16 1020.0 1020.3 1.2
02/12:30am 10.5 4.9 10.3 99 0.1 NW 30 41 16 22 1019.3 1019.6 0.0
02/12:00am 10.6 5.4 10.4 99 0.1 NW 28 37 15 20 1019.5 1019.8 0.0
 
Date/Time
EST
Temp
°C
App
Temp
°C
Dew
Point
Rel
Hum
%
Delta-T
°C
Wind Press
QNH
hPa
Press
MSL
hPa
Rain
since 9 am
mm
Dir
 
Spd
km/h
Gust
km/h
Spd
kts
Gust
kts
01/11:30pm 10.5 6.1 10.3 99 0.1 NW 24 33 13 18 1020.0 1020.3 0.0
01/11:00pm 10.5 5.3 10.3 99 0.1 NW 28 39 15 21 1020.1 1020.4 0.0
01/10:30pm 10.6 5.8 10.4 99 0.1 NW 26 37 14 20 1020.4 1020.7 0.0
01/10:00pm 10.7 6.0 10.5 99 0.1 NW 26 35 14 19 1020.9 1021.2 0.0
01/09:30pm 10.6 6.2 10.4 99 0.1 NW 24 33 13 18 1021.0 1021.3 0.0
01/09:00pm 10.5 5.7 10.3 99 0.1 NW 26 33 14 18 1021.1 1021.4 0.0
01/08:30pm 10.2 6.1 10.1 99 0.1 NW 22 33 12 18 1021.4 1021.7 0.0
01/08:00pm 9.9 6.1 9.8 99 0.1 NW 20 30 11 16 1021.5 1021.8 0.0
01/07:30pm 9.7 5.8 9.6 99 0.1 NW 20 30 11 16 1021.6 1021.9 0.0
01/07:00pm 9.8 5.6 9.7 99 0.1 NW 22 32 12 17 1021.7 1022.0 0.0
01/06:30pm 10.3 5.8 10.1 99 0.1 NW 24 33 13 18 1021.6 1021.9 0.0
01/06:00pm 10.3 5.8 10.0 98 0.2 NW 24 30 13 16 1021.7 1022.0 0.0
01/05:30pm 10.8 6.3 10.0 95 0.4 NW 24 35 13 19 1021.7 1022.0 0.0
01/05:00pm 10.7 6.1 9.8 94 0.5 NW 24 33 13 18 1021.7 1022.0 0.0
01/04:30pm 11.0 6.8 9.9 93 0.6 NW 22 32 12 17 1021.9 1022.1 0.0
01/04:00pm 11.7 6.4 9.8 88 1.0 NW 28 41 15 22 1022.4 1022.6 0.0
01/03:30pm 11.8 6.9 10.0 89 0.9 NW 26 35 14 19 1022.6 1022.8 0.0
01/03:00pm 12.3 7.8 10.0 86 1.2 NW 24 33 13 18 1022.5 1022.7 0.0
01/02:30pm 12.4 6.8 10.1 86 1.2 NW 30 41 16 22 1022.7 1022.9 0.0
01/02:00pm 13.0 7.4 10.0 82 1.5 NW 30 39 16 21 1023.1 1023.3 0.0
01/01:30pm 12.9 7.3 10.3 84 1.4 NW 30 41 16 22 1023.7 1023.9 0.0
01/01:00pm 12.7 7.1 10.2 85 1.3 NW 30 46 16 25 1024.4 1024.6 0.0
01/12:30pm 12.5 6.8 9.9 84 1.3 NW 30 41 16 22 1024.9 1025.1 0.0
01/12:00pm 11.4 7.0 9.1 86 1.1 NW 22 32 12 17 1025.4 1025.7 0.0
01/11:30am 11.2 6.8 8.8 85 1.2 NW 22 35 12 19 1026.1 1026.4 0.0
01/11:00am 10.8 6.0 8.9 88 0.9 NNW 24 32 13 17 1026.2 1026.5 0.0
01/10:30am 10.1 6.3 9.2 94 0.4 NW 19 24 10 13 1026.7 1027.0 0.0
01/10:00am 9.6 5.2 9.0 96 0.3 NW 22 28 12 15 1027.1 1027.4 0.0
01/09:30am 9.0 5.2 8.9 99 0.0 NW 19 26 10 14 1027.1 1027.4 0.0
01/09:00am 8.5 4.5 8.4 99 0.0 NNW 19 24 10 13 1027.1 1027.4 0.0
01/08:30am 7.4 3.9 7.3 99 0.0 NNW 15 19 8 10 1027.0 1027.3 0.0
01/08:00am 8.0 4.7 7.9 99 0.0 NNW 15 20 8 11 1027.2 1027.5 0.0
01/07:30am 8.1 5.2 8.0 99 0.0 NNW 13 17 7 9 1027.1 1027.4 0.0
01/07:00am 8.0 5.0 7.9 99 0.0 NNW 13 17 7 9 1027.0 1027.3 0.0
01/06:30am 7.6 4.9 7.5 99 0.0 NW 11 15 6 8 1027.0 1027.3 0.0
01/06:00am 8.4 5.5 8.3 99 0.0 NW 13 17 7 9 1026.9 1027.2 0.0
01/05:30am 8.2 5.7 8.1 99 0.0 NW 11 13 6 7 1026.9 1027.2 0.0
01/05:00am 8.0 5.8 7.9 99 0.0 NW 9 11 5 6 1026.9 1027.2 0.0
01/04:30am 8.0 6.2 7.9 99 0.0 NW 7 9 4 5 1027.1 1027.4 0.0
01/04:00am 8.0 6.1 7.6 97 0.2 NW 7 9 4 5 1027.4 1027.7 0.0
01/03:30am 7.7 5.8 7.6 99 0.0 NW 7 11 4 6 1027.5 1027.8 0.0
01/03:00am 7.8 5.9 7.5 98 0.1 NNW 7 11 4 6 1027.6 1027.9 0.0
01/02:30am 8.3 6.1 7.9 97 0.2 NW 9 13 5 7 1027.6 1027.9 0.0
01/02:00am 8.1 5.9 8.0 99 0.0 NNW 9 15 5 8 1027.7 1028.0 0.0
01/01:30am 7.7 6.0 7.6 99 0.0 NW 6 7 3 4 1028.0 1028.3 0.0
01/01:00am 7.7 5.8 7.6 99 0.0 NW 7 9 4 5 1028.1 1028.4 0.0
01/12:30am 7.6 5.7 7.6 100 0.0 WNW 7 9 4 5 1028.3 1028.6 0.0
01/12:00am 8.0 6.4 8.0 100 0.0 W 6 7 3 4 1028.6 1028.9 0.0
 
Date/Time
EST
Temp
°C
App
Temp
°C
Dew
Point
Rel
Hum
%
Delta-T
°C
Wind Press
QNH
hPa
Press
MSL
hPa
Rain
since 9 am
mm
Dir
 
Spd
km/h
Gust
km/h
Spd
kts
Gust
kts
30/11:30pm 7.7 6.0 7.7 100 0.0 SW 6 6 3 3 1028.7 1029.0 0.0
30/11:00pm 7.4 5.7 7.4 100 0.0 SW 6 6 3 3 1028.8 1029.1 0.0
30/10:30pm 6.9 5.4 6.8 99 0.0 SW 4 4 2 2 1028.9 1029.2 0.0
30/10:00pm 6.7 5.9 6.6 99 0.0 CALM 0 0 0 0 1028.8 1029.1 0.0
30/09:30pm 8.2 7.8 8.2 100 0.0 CALM 0 0 0 0 1028.9 1029.2 0.0

Other Formats:

Comma delimited format used in spreadsheet applications
http://www.bom.gov.au/fwo/IDV60801/IDV60801.94840.axf

JavaScript Object Notation format (JSON) in row-major order
http://www.bom.gov.au/fwo/IDV60801/IDV60801.94840.json